Time;durP1;ratioP1;P1;durP2;ratioP2;P2;SDS_P1;SDS_P2;PMS_P1;PMS_P2;Temp;Humidity;BMP_temperature;BMP_pressure;BME280_temperature;BME280_humidity;BME280_pressure;Samples;Min_cycle;Max_cycle;Signal;HPM_P1;HPM_P2
2022/01/25 00:24:29;;;;;;;57.00;22.48;;;4.50;99.90;;;;;;4996321;28;20088;-83
2022/01/25 00:32:11;;;;;;;54.40;22.63;;;4.50;99.90;;;;;;5013930;28;20026;-83
2022/01/25 00:34:37;;;;;;;57.83;23.10;;;4.40;99.90;;;;;;5013970;28;20105;-83
2022/01/25 00:37:04;;;;;;;57.30;23.38;;;4.50;99.90;;;;;;5013700;28;20148;-83
2022/01/25 00:39:29;;;;;;;56.78;21.90;;;4.50;99.90;;;;;;5013563;28;20092;-83
2022/01/25 00:41:55;;;;;;;57.47;21.95;;;4.40;99.90;;;;;;5013437;28;20022;-83
2022/01/25 00:44:21;;;;;;;62.03;23.67;;;4.40;99.90;;;;;;5013793;28;20026;-83
2022/01/25 00:46:47;;;;;;;53.80;23.08;;;4.40;99.90;;;;;;5013790;28;20028;-83
2022/01/25 00:49:21;;;;;;;51.63;21.95;;;4.40;99.90;;;;;;5013516;28;20041;-83
2022/01/25 00:52:04;;;;;;;57.97;22.23;;;4.40;99.90;;;;;;5013489;28;20030;-83
2022/01/25 00:54:30;;;;;;;59.35;23.60;;;4.40;99.90;;;;;;5013886;28;20080;-83
2022/01/25 00:56:56;;;;;;;55.38;21.55;;;4.40;99.90;;;;;;5013955;28;20026;-83
2022/01/25 00:59:28;;;;;;;56.22;22.65;;;4.40;99.90;;;;;;5012093;28;20037;-83
2022/01/25 01:01:57;;;;;;;56.67;22.33;;;4.40;99.90;;;;;;5013424;28;20057;-83
2022/01/25 01:04:25;;;;;;;54.40;22.70;;;4.40;99.90;;;;;;5011955;28;20030;-83
2022/01/25 01:06:52;;;;;;;55.83;23.10;;;4.40;99.90;;;;;;5012039;28;20120;-83
2022/01/25 01:09:19;;;;;;;59.33;23.20;;;4.40;99.90;;;;;;5013634;28;20026;-83
2022/01/25 01:12:01;;;;;;;57.35;22.65;;;4.40;99.90;;;;;;5013515;28;20076;-83
2022/01/25 01:28:45;;;;;;;58.58;22.92;;;4.40;99.90;;;;;;5013320;28;20061;-83
2022/01/25 01:34:21;;;;;;;56.95;22.23;;;4.40;99.90;;;;;;5016089;28;20030;-83
2022/01/25 01:42:29;;;;;;;59.53;23.98;;;4.40;99.90;;;;;;5008513;28;20064;-83
2022/01/25 01:45:12;;;;;;;61.22;22.83;;;4.40;99.90;;;;;;5011315;28;20022;-82
2022/01/25 01:47:47;;;;;;;56.50;23.20;;;4.40;99.90;;;;;;5016701;28;20447;-83
2022/01/25 01:50:25;;;;;;;57.85;22.63;;;4.40;99.90;;;;;;5016596;28;20089;-83
2022/01/25 01:52:51;;;;;;;56.15;22.33;;;4.40;99.90;;;;;;5016598;28;20022;-82
2022/01/25 01:55:17;;;;;;;56.50;23.30;;;4.30;99.90;;;;;;5016462;28;20440;-83
2022/01/25 01:57:43;;;;;;;59.85;22.88;;;4.40;99.90;;;;;;5016565;28;20034;-83
2022/01/25 02:00:09;;;;;;;61.08;23.15;;;4.40;99.90;;;;;;5016870;28;20668;-83
2022/01/25 02:02:35;;;;;;;57.38;22.35;;;4.40;99.90;;;;;;5016765;28;20403;-83
2022/01/25 02:05:02;;;;;;;55.63;22.20;;;4.40;99.90;;;;;;5016172;28;20470;-83
2022/01/25 02:07:28;;;;;;;55.90;23.42;;;4.40;99.90;;;;;;5015440;28;20502;-83
2022/01/25 02:09:53;;;;;;;56.75;22.35;;;4.40;99.90;;;;;;5015953;28;20497;-83
2022/01/25 02:12:19;;;;;;;62.97;24.23;;;4.30;99.90;;;;;;5015179;28;20105;-83
2022/01/25 02:14:48;;;;;;;59.67;22.48;;;4.40;99.90;;;;;;5014804;28;20425;-83
2022/01/25 02:22:55;;;;;;;59.43;23.57;;;4.40;99.90;;;;;;5015461;28;20080;-83
2022/01/25 02:25:21;;;;;;;58.38;22.65;;;4.40;99.90;;;;;;5015283;28;20105;-83
2022/01/25 02:27:46;;;;;;;56.15;23.50;;;4.40;99.90;;;;;;5015929;28;20038;-83
2022/01/25 02:30:12;;;;;;;60.58;24.58;;;4.40;99.90;;;;;;5015284;28;20401;-83
2022/01/25 02:32:38;;;;;;;61.67;24.33;;;4.30;99.90;;;;;;5015219;28;20029;-83
2022/01/25 02:35:05;;;;;;;58.20;23.10;;;4.30;99.90;;;;;;5015975;28;20026;-83
2022/01/25 02:37:31;;;;;;;60.33;23.67;;;4.40;99.90;;;;;;5014833;28;20022;-83
2022/01/25 02:39:57;;;;;;;55.78;23.73;;;4.30;99.90;;;;;;5014399;28;20018;-83
2022/01/25 02:42:23;;;;;;;59.20;23.80;;;4.40;99.90;;;;;;5015336;28;20018;-83
2022/01/25 02:44:49;;;;;;;57.17;22.98;;;4.30;99.90;;;;;;5015496;28;20028;-83
2022/01/25 02:50:21;;;;;;;55.53;23.10;;;4.30;99.90;;;;;;5017651;28;20602;-83
2022/01/25 02:52:47;;;;;;;58.45;23.40;;;4.40;99.90;;;;;;5015781;28;20021;-83
2022/01/25 02:55:13;;;;;;;54.03;22.92;;;4.30;99.90;;;;;;5024838;28;20080;-83
2022/01/25 02:57:38;;;;;;;64.25;23.20;;;4.40;99.90;;;;;;5015036;28;20029;-83
2022/01/25 03:00:09;;;;;;;54.38;23.27;;;4.40;99.90;;;;;;5014149;28;20398;-83
2022/01/25 03:02:35;;;;;;;56.97;22.85;;;4.40;99.90;;;;;;5015142;28;20071;-83
2022/01/25 03:05:01;;;;;;;58.83;23.15;;;4.30;99.90;;;;;;5013900;28;20030;-83
2022/01/25 03:07:26;;;;;;;60.05;24.55;;;4.40;99.90;;;;;;5013741;28;20095;-83
2022/01/25 03:09:56;;;;;;;56.95;23.55;;;4.40;99.90;;;;;;5015076;28;20037;-83
2022/01/25 03:12:32;;;;;;;60.38;23.27;;;4.40;99.90;;;;;;5015478;28;20040;-83
2022/01/25 03:15:22;;;;;;;59.15;22.55;;;4.30;99.90;;;;;;5015414;28;20497;-83
2022/01/25 03:18:06;;;;;;;60.53;23.75;;;4.40;99.90;;;;;;5014370;28;20575;-83
2022/01/25 03:20:50;;;;;;;60.58;24.27;;;4.40;99.90;;;;;;5014928;28;20225;-83
2022/01/25 03:23:19;;;;;;;60.72;23.83;;;4.40;99.90;;;;;;5013362;28;20042;-83
2022/01/25 03:25:47;;;;;;;61.30;23.58;;;4.40;99.90;;;;;;5015756;28;20026;-83
2022/01/25 03:28:14;;;;;;;62.83;24.67;;;4.30;99.90;;;;;;5013353;28;20030;-83
2022/01/25 03:30:39;;;;;;;59.38;22.42;;;4.40;99.90;;;;;;5014562;28;20545;-83
2022/01/25 03:33:05;;;;;;;59.38;23.50;;;4.40;99.90;;;;;;5013405;28;20058;-83
2022/01/25 03:35:30;;;;;;;56.83;23.25;;;4.40;99.90;;;;;;5014690;28;20049;-83
2022/01/25 03:37:56;;;;;;;59.78;24.05;;;4.30;99.90;;;;;;5018677;28;20299;-83
2022/01/25 03:40:22;;;;;;;57.00;23.30;;;4.30;99.90;;;;;;5014201;28;20482;-83
2022/01/25 03:42:48;;;;;;;56.35;23.40;;;4.30;99.90;;;;;;5014504;28;20026;-83
2022/01/25 03:45:19;;;;;;;65.07;25.48;;;4.20;99.90;;;;;;5014357;28;20026;-83
2022/01/25 03:50:30;;;;;;;57.00;22.52;;;4.30;99.90;;;;;;4998391;28;20511;-83
2022/01/25 03:52:56;;;;;;;56.85;22.83;;;4.30;99.90;;;;;;5013807;28;20022;-83
2022/01/25 03:55:21;;;;;;;60.80;24.05;;;4.30;99.90;;;;;;5014170;28;20028;-83
2022/01/25 03:57:47;;;;;;;58.90;23.35;;;4.30;99.90;;;;;;5013054;28;20062;-83
2022/01/25 04:00:13;;;;;;;60.50;23.73;;;4.30;99.90;;;;;;5013848;28;20030;-83
2022/01/25 04:02:49;;;;;;;53.78;21.35;;;4.30;99.90;;;;;;5014197;28;20429;-83
2022/01/25 04:05:21;;;;;;;61.05;23.85;;;4.30;99.90;;;;;;5012521;28;20026;-83
2022/01/25 04:07:50;;;;;;;59.03;23.40;;;4.30;99.90;;;;;;5014411;28;20034;-83
2022/01/25 04:10:18;;;;;;;56.83;22.70;;;4.40;99.90;;;;;;5014049;28;20117;-83
2022/01/25 04:12:44;;;;;;;60.53;23.65;;;4.30;99.90;;;;;;5014124;28;20036;-83
2022/01/25 04:15:10;;;;;;;60.20;24.08;;;4.30;99.90;;;;;;5012495;28;20074;-83
2022/01/25 04:17:36;;;;;;;56.13;22.42;;;4.30;99.90;;;;;;5013921;28;20084;-83
2022/01/25 04:20:14;;;;;;;63.35;24.42;;;4.30;99.90;;;;;;5013939;28;20045;-83
2022/01/25 04:25:40;;;;;;;63.38;25.08;;;4.30;99.90;;;;;;5031108;28;20032;-83
2022/01/25 04:28:06;;;;;;;65.05;26.27;;;4.30;99.90;;;;;;5009636;28;20394;-83
2022/01/25 04:30:32;;;;;;;60.08;24.88;;;4.30;99.90;;;;;;5013445;28;20469;-83
2022/01/25 04:33:16;;;;;;;57.03;22.90;;;4.30;99.90;;;;;;5014825;28;20057;-83
2022/01/25 04:35:57;;;;;;;61.08;25.17;;;4.30;99.90;;;;;;5014363;28;20021;-83
2022/01/25 04:49:23;;;;;;;57.85;22.90;;;4.30;99.90;;;;;;5013310;28;20064;-83
2022/01/25 04:52:11;;;;;;;61.47;24.40;;;4.30;99.90;;;;;;5020694;28;20030;-83
2022/01/25 04:54:46;;;;;;;58.60;22.92;;;4.30;99.90;;;;;;5013613;28;20034;-83
2022/01/25 05:02:21;;;;;;;59.00;24.20;;;4.30;99.90;;;;;;5013960;28;20022;-83
2022/01/25 05:04:55;;;;;;;57.03;22.30;;;4.40;99.90;;;;;;5015368;28;20438;-83
2022/01/25 05:10:19;;;;;;;57.17;23.75;;;4.30;99.90;;;;;;5000596;28;20096;-83
2022/01/25 05:15:24;;;;;;;56.83;21.92;;;4.30;99.90;;;;;;5017805;28;20472;-83
2022/01/25 05:18:13;;;;;;;61.92;23.65;;;4.30;99.90;;;;;;5015865;28;20049;-83
2022/01/25 05:23:23;;;;;;;56.80;23.13;;;4.30;99.90;;;;;;5012117;28;20397;-83
2022/01/25 05:25:49;;;;;;;55.72;22.85;;;4.30;99.90;;;;;;5010696;28;20022;-83
2022/01/25 05:28:31;;;;;;;56.80;22.98;;;4.30;99.90;;;;;;5030926;28;20362;-84
2022/01/25 05:30:57;;;;;;;58.70;23.98;;;4.30;99.90;;;;;;5003852;28;20024;-83
2022/01/25 05:33:24;;;;;;;60.08;23.10;;;4.40;99.90;;;;;;5010877;28;20109;-83
2022/01/25 05:35:50;;;;;;;57.28;22.58;;;4.30;99.90;;;;;;5005080;28;20034;-83
2022/01/25 05:38:15;;;;;;;56.72;23.17;;;4.30;99.90;;;;;;4998772;28;20033;-84
2022/01/25 05:40:47;;;;;;;64.38;23.33;;;4.30;99.90;;;;;;4997861;28;20030;-83
2022/01/25 05:46:02;;;;;;;60.22;24.15;;;4.30;99.90;;;;;;5002347;28;20473;-84
2022/01/25 05:48:29;;;;;;;60.47;23.85;;;4.30;99.90;;;;;;5000358;28;20520;-84
2022/01/25 05:50:56;;;;;;;63.10;23.77;;;4.30;99.90;;;;;;5003720;28;20050;-83
2022/01/25 05:53:21;;;;;;;60.80;23.20;;;4.40;99.90;;;;;;5003358;28;20092;-84
2022/01/25 05:55:47;;;;;;;57.55;23.13;;;4.40;99.90;;;;;;5013655;28;20030;-84
2022/01/25 05:58:13;;;;;;;57.47;23.02;;;4.30;99.90;;;;;;5008618;28;20446;-84
2022/01/25 06:00:39;;;;;;;62.30;23.77;;;4.30;99.90;;;;;;5001258;28;20026;-83
2022/01/25 06:03:06;;;;;;;61.00;23.85;;;4.40;99.90;;;;;;4996343;28;20030;-84
2022/01/25 06:05:33;;;;;;;57.83;23.80;;;4.30;99.90;;;;;;5013399;28;20022;-83
2022/01/25 06:07:59;;;;;;;60.00;23.50;;;4.30;99.90;;;;;;5013886;28;20033;-83
2022/01/25 06:10:24;;;;;;;66.95;24.73;;;4.40;99.90;;;;;;5014421;28;20117;-83
2022/01/25 06:12:50;;;;;;;61.15;23.70;;;4.40;99.90;;;;;;5013302;28;20014;-83
2022/01/25 06:15:16;;;;;;;62.00;23.75;;;4.30;99.90;;;;;;5015038;28;20109;-83
2022/01/25 06:17:42;;;;;;;60.75;24.13;;;4.40;99.90;;;;;;5015897;28;20053;-83
2022/01/25 06:20:08;;;;;;;60.00;23.55;;;4.40;99.90;;;;;;5017779;28;20041;-84
2022/01/25 06:22:34;;;;;;;60.10;23.98;;;4.30;99.90;;;;;;4997286;28;20113;-83
2022/01/25 06:25:00;;;;;;;58.28;24.40;;;4.30;99.90;;;;;;5012945;28;20303;-83
2022/01/25 06:27:25;;;;;;;62.92;22.23;;;4.40;99.90;;;;;;5013026;28;20033;-83
2022/01/25 06:29:51;;;;;;;59.95;24.23;;;4.40;99.90;;;;;;5014441;28;20395;-84
2022/01/25 06:32:19;;;;;;;56.10;23.17;;;4.50;99.90;;;;;;5012140;28;20088;-83
2022/01/25 06:34:45;;;;;;;61.67;24.85;;;4.40;99.90;;;;;;5009441;28;20029;-83
2022/01/25 06:37:12;;;;;;;60.88;24.63;;;4.40;99.90;;;;;;5013805;28;20034;-83
2022/01/25 06:39:38;;;;;;;54.15;23.00;;;4.40;99.90;;;;;;5014097;28;20030;-83
2022/01/25 06:42:05;;;;;;;54.10;22.73;;;4.40;99.90;;;;;;5014158;28;20299;-83
2022/01/25 06:44:33;;;;;;;56.75;23.23;;;4.40;99.90;;;;;;5011059;28;20064;-83
2022/01/25 06:46:59;;;;;;;63.42;23.75;;;4.40;99.90;;;;;;5012478;28;20029;-83
2022/01/25 06:49:24;;;;;;;56.28;22.13;;;4.40;99.90;;;;;;5012615;28;20025;-83
2022/01/25 06:51:50;;;;;;;60.45;25.10;;;4.40;99.90;;;;;;5012428;28;20026;-84
2022/01/25 06:54:16;;;;;;;61.70;23.38;;;4.40;99.90;;;;;;5011877;28;20038;-85
2022/01/25 06:56:41;;;;;;;66.63;25.02;;;4.40;99.90;;;;;;5008917;28;20080;-84
2022/01/25 06:59:07;;;;;;;58.80;24.10;;;4.40;99.90;;;;;;4994496;28;20034;-84
2022/01/25 07:01:32;;;;;;;59.22;23.88;;;4.50;99.90;;;;;;5006042;28;20017;-84
2022/01/25 07:03:58;;;;;;;60.78;24.58;;;4.40;99.90;;;;;;5008910;28;20474;-84
2022/01/25 07:06:24;;;;;;;57.75;22.45;;;4.30;99.90;;;;;;5012195;28;20030;-84
2022/01/25 07:08:50;;;;;;;58.70;23.08;;;4.40;99.90;;;;;;5012323;28;20496;-83
2022/01/25 07:11:16;;;;;;;61.58;23.42;;;4.40;99.90;;;;;;5011924;28;20029;-84
2022/01/25 07:13:41;;;;;;;55.88;23.23;;;4.40;99.90;;;;;;5008472;28;20063;-84
2022/01/25 07:16:07;;;;;;;60.65;25.45;;;4.40;99.90;;;;;;5019562;28;20054;-84
2022/01/25 07:18:33;;;;;;;63.80;25.13;;;4.40;99.90;;;;;;5011802;28;20108;-84
2022/01/25 07:20:59;;;;;;;65.60;26.48;;;4.60;99.90;;;;;;5011534;28;20077;-84
2022/01/25 07:23:25;;;;;;;56.08;24.02;;;4.40;99.90;;;;;;5013109;28;20022;-84
2022/01/25 07:25:50;;;;;;;60.97;23.40;;;4.40;99.90;;;;;;5003899;28;20036;-84
2022/01/25 07:28:16;;;;;;;59.80;23.52;;;4.40;99.90;;;;;;5013253;28;20025;-84
2022/01/25 07:30:42;;;;;;;57.22;22.75;;;4.40;99.90;;;;;;5013018;28;20096;-84
2022/01/25 07:33:07;;;;;;;61.60;23.45;;;4.40;99.90;;;;;;5013094;28;20428;-84
2022/01/25 07:35:34;;;;;;;55.53;23.10;;;4.40;99.90;;;;;;5013278;28;20571;-84
2022/01/25 07:38:00;;;;;;;61.95;23.75;;;4.40;99.90;;;;;;5012309;28;20072;-83
2022/01/25 07:40:25;;;;;;;60.20;24.25;;;4.50;99.90;;;;;;5013355;28;20433;-84
2022/01/25 07:42:51;;;;;;;57.97;22.65;;;4.40;99.90;;;;;;5011834;28;20511;-84
2022/01/25 07:45:17;;;;;;;61.10;23.58;;;4.40;99.90;;;;;;5011709;28;20121;-84
2022/01/25 07:47:42;;;;;;;62.45;23.48;;;4.40;99.90;;;;;;5011619;28;20350;-84
2022/01/25 07:50:09;;;;;;;59.63;24.10;;;4.50;99.90;;;;;;5023547;28;20035;-84
2022/01/25 07:52:36;;;;;;;60.47;24.52;;;4.40;99.90;;;;;;5007806;28;20048;-84
2022/01/25 07:55:02;;;;;;;58.60;22.70;;;4.40;99.90;;;;;;5012409;28;20525;-84
2022/01/25 07:57:28;;;;;;;56.08;22.23;;;4.40;99.90;;;;;;5010794;28;20026;-84
2022/01/25 07:59:53;;;;;;;58.78;23.60;;;4.40;99.90;;;;;;5008091;28;20470;-83
2022/01/25 08:02:20;;;;;;;57.13;23.35;;;4.40;99.90;;;;;;5012400;28;20026;-83
2022/01/25 08:04:45;;;;;;;61.92;22.85;;;4.40;99.90;;;;;;5012583;28;20556;-84
2022/01/25 08:07:12;;;;;;;58.45;22.83;;;4.50;99.90;;;;;;5012422;28;20045;-84
2022/01/25 08:09:37;;;;;;;56.10;21.95;;;4.50;99.90;;;;;;5008334;28;20117;-83
2022/01/25 08:12:03;;;;;;;61.40;24.33;;;4.40;99.90;;;;;;5009303;28;20156;-83
2022/01/25 08:14:29;;;;;;;56.05;23.23;;;4.40;99.90;;;;;;5007080;28;20117;-83
2022/01/25 08:16:54;;;;;;;58.63;22.70;;;4.50;99.90;;;;;;4996888;28;20018;-83
2022/01/25 08:19:20;;;;;;;62.28;24.40;;;4.50;99.90;;;;;;4999542;28;20041;-83
2022/01/25 08:21:47;;;;;;;72.18;26.52;;;4.50;99.90;;;;;;4999684;28;20121;-83
2022/01/25 08:24:15;;;;;;;63.95;25.38;;;4.50;99.90;;;;;;4998112;28;20497;-83
2022/01/25 08:26:44;;;;;;;61.53;24.83;;;4.50;99.90;;;;;;4999129;28;20475;-83
2022/01/25 08:29:09;;;;;;;57.83;24.30;;;4.50;99.90;;;;;;4999016;28;20025;-83
2022/01/25 08:31:35;;;;;;;63.85;27.13;;;4.50;99.90;;;;;;5012953;28;20030;-83
2022/01/25 08:34:02;;;;;;;60.65;24.13;;;4.50;99.90;;;;;;5000067;28;20030;-83
2022/01/25 08:36:28;;;;;;;57.90;24.13;;;4.50;99.90;;;;;;5003917;28;20058;-83
2022/01/25 08:38:54;;;;;;;59.58;22.38;;;4.50;99.90;;;;;;5010514;28;20057;-83
2022/01/25 08:41:20;;;;;;;60.63;23.42;;;4.60;99.90;;;;;;5009276;28;20636;-82
2022/01/25 08:43:46;;;;;;;59.65;23.02;;;4.60;99.90;;;;;;5011115;28;20036;-83
2022/01/25 08:46:12;;;;;;;58.65;22.38;;;4.60;99.90;;;;;;5010566;28;20022;-83
2022/01/25 08:48:38;;;;;;;57.60;22.10;;;4.60;99.90;;;;;;5011055;28;20048;-83
2022/01/25 08:51:05;;;;;;;58.50;22.85;;;4.60;99.90;;;;;;5010862;28;20432;-83
2022/01/25 08:53:30;;;;;;;57.13;23.70;;;4.60;99.90;;;;;;5008938;28;20527;-83
2022/01/25 08:55:56;;;;;;;57.95;24.92;;;4.70;99.90;;;;;;5009300;28;20101;-82
2022/01/25 08:58:22;;;;;;;63.72;24.25;;;4.70;99.90;;;;;;5010794;28;20026;-83
2022/01/25 09:00:48;;;;;;;55.70;23.23;;;4.60;99.90;;;;;;5007565;28;20027;-83
2022/01/25 09:03:13;;;;;;;57.45;22.55;;;4.70;99.90;;;;;;4999676;28;20542;-83
2022/01/25 09:05:39;;;;;;;60.67;22.90;;;4.70;99.90;;;;;;5009156;28;20030;-83
2022/01/25 09:08:06;;;;;;;57.40;24.35;;;4.70;99.90;;;;;;5001308;28;20387;-83
2022/01/25 09:10:32;;;;;;;59.05;23.55;;;4.70;99.90;;;;;;4992792;28;20093;-83
2022/01/25 09:12:58;;;;;;;56.15;22.48;;;4.80;99.90;;;;;;5003921;28;20083;-83
2022/01/25 09:15:24;;;;;;;61.53;24.05;;;4.80;99.90;;;;;;5011011;28;20030;-83
2022/01/25 09:17:50;;;;;;;56.97;23.30;;;4.70;99.90;;;;;;5001811;28;20378;-82
2022/01/25 09:20:16;;;;;;;55.67;22.70;;;4.70;99.90;;;;;;5010878;28;20454;-83
2022/01/25 09:22:42;;;;;;;60.15;22.73;;;4.70;99.90;;;;;;5009080;28;20029;-83
2022/01/25 09:25:09;;;;;;;58.13;23.98;;;4.80;99.90;;;;;;5009340;28;20156;-83
2022/01/25 09:27:35;;;;;;;56.05;23.33;;;4.80;99.90;;;;;;5011062;28;20023;-83
2022/01/25 09:30:01;;;;;;;62.97;23.63;;;4.80;99.90;;;;;;5010531;28;20444;-83
2022/01/25 09:32:26;;;;;;;53.83;22.23;;;5.00;99.90;;;;;;5009326;28;20092;-83
2022/01/25 09:34:52;;;;;;;57.47;23.13;;;4.80;99.90;;;;;;5010517;28;20514;-83
2022/01/25 09:37:17;;;;;;;64.53;26.42;;;4.80;99.90;;;;;;5006331;28;20369;-83
2022/01/25 09:39:43;;;;;;;71.72;26.52;;;4.80;99.90;;;;;;5007377;28;20042;-83
2022/01/25 09:42:10;;;;;;;59.22;24.25;;;4.80;99.90;;;;;;5009375;28;20052;-83
2022/01/25 09:44:39;;;;;;;55.30;23.15;;;4.80;99.90;;;;;;5010724;28;20099;-83
2022/01/25 09:47:05;;;;;;;60.60;24.60;;;4.80;99.90;;;;;;5009012;28;20053;-83
2022/01/25 09:49:32;;;;;;;55.42;22.65;;;4.80;99.90;;;;;;5011525;28;20526;-82
2022/01/25 09:52:01;;;;;;;58.72;22.25;;;4.80;99.90;;;;;;5014133;28;20026;-83
2022/01/25 09:54:26;;;;;;;60.05;22.85;;;4.80;99.90;;;;;;5012603;28;20030;-83
2022/01/25 09:56:52;;;;;;;58.53;23.10;;;4.90;99.90;;;;;;5008924;28;20022;-83
2022/01/25 09:59:17;;;;;;;59.45;22.73;;;4.90;99.90;;;;;;5011975;28;20060;-83
2022/01/25 10:01:43;;;;;;;59.75;23.52;;;4.90;99.90;;;;;;5006112;28;20033;-83
2022/01/25 10:04:36;;;;;;;60.13;23.38;;;5.00;99.90;;;;;;5000603;28;20297;-83
2022/01/25 10:07:04;;;;;;;54.63;22.60;;;5.00;99.90;;;;;;5011534;28;20378;-83
2022/01/25 10:09:30;;;;;;;58.00;23.65;;;4.90;99.90;;;;;;5013788;28;20026;-83
2022/01/25 10:11:56;;;;;;;57.65;24.08;;;5.00;99.90;;;;;;5010300;28;20536;-84
2022/01/25 10:14:28;;;;;;;57.38;23.67;;;5.00;99.90;;;;;;5012539;28;20030;-84
2022/01/25 10:16:54;;;;;;;58.88;23.30;;;5.00;99.90;;;;;;5010293;28;20038;-83
2022/01/25 10:19:24;;;;;;;57.22;22.60;;;5.00;99.90;;;;;;4999677;28;20041;-84
2022/01/25 10:21:51;;;;;;;55.47;22.58;;;5.00;99.90;;;;;;5002486;28;20018;-84
2022/01/25 10:24:21;;;;;;;58.13;24.77;;;5.00;99.90;;;;;;5005207;28;20398;-84
2022/01/25 10:27:00;;;;;;;57.60;23.38;;;4.80;99.90;;;;;;5007092;28;20023;-84
2022/01/25 10:29:27;;;;;;;63.88;24.30;;;5.00;99.90;;;;;;5012148;28;20026;-84
2022/01/25 10:31:57;;;;;;;58.30;22.92;;;5.10;99.90;;;;;;5010772;28;20385;-84
2022/01/25 10:34:29;;;;;;;60.88;23.52;;;5.00;99.90;;;;;;5014106;28;20127;-84
2022/01/25 10:36:55;;;;;;;60.45;23.17;;;5.00;99.90;;;;;;5014996;28;20036;-84
2022/01/25 10:39:29;;;;;;;58.92;23.75;;;5.10;99.90;;;;;;5015404;28;20466;-84
2022/01/25 10:42:10;;;;;;;61.13;22.75;;;5.10;99.90;;;;;;5013894;28;20148;-83
2022/01/25 10:45:06;;;;;;;63.10;24.58;;;5.10;99.90;;;;;;5006315;28;20022;-84
2022/01/25 10:47:50;;;;;;;57.05;22.92;;;5.10;99.90;;;;;;5012243;28;20030;-84
2022/01/25 10:50:37;;;;;;;63.22;23.75;;;5.10;99.90;;;;;;5011675;28;20045;-84
2022/01/25 10:53:11;;;;;;;61.08;24.50;;;5.20;99.90;;;;;;5009098;28;20037;-84
2022/01/25 10:55:43;;;;;;;58.70;22.25;;;5.10;99.90;;;;;;5012839;28;20022;-84
2022/01/25 10:58:10;;;;;;;61.13;25.52;;;5.20;99.90;;;;;;5006182;28;20113;-83
2022/01/25 11:00:41;;;;;;;58.13;24.02;;;5.10;99.90;;;;;;5000654;28;20077;-83
2022/01/25 11:03:07;;;;;;;60.60;24.35;;;5.20;99.90;;;;;;5001071;28;20510;-84
2022/01/25 11:05:43;;;;;;;63.85;23.20;;;5.20;99.90;;;;;;5012299;28;20526;-84
2022/01/25 11:08:14;;;;;;;58.78;23.40;;;5.20;99.90;;;;;;5012517;28;20033;-84
2022/01/25 11:10:53;;;;;;;60.00;23.67;;;5.20;99.90;;;;;;5015372;28;20030;-84
2022/01/25 11:15:55;;;;;;;63.13;22.73;;;5.20;99.90;;;;;;5000129;28;20399;-84
2022/01/25 11:18:20;;;;;;;60.03;23.73;;;5.20;99.90;;;;;;5006071;28;20061;-84
2022/01/25 11:20:48;;;;;;;57.85;22.52;;;5.20;99.90;;;;;;5002643;28;20026;-84
2022/01/25 11:23:14;;;;;;;67.57;26.10;;;5.20;99.90;;;;;;5001653;28;20083;-84
2022/01/25 11:25:41;;;;;;;67.47;25.58;;;5.20;99.90;;;;;;5010926;28;20022;-85
2022/01/25 11:28:06;;;;;;;64.93;24.20;;;5.20;99.90;;;;;;5015378;28;20525;-85
2022/01/25 11:30:32;;;;;;;58.58;23.90;;;5.20;99.90;;;;;;5019528;28;20042;-86
2022/01/25 11:32:59;;;;;;;62.63;24.38;;;5.30;99.90;;;;;;5021187;28;20032;-84
2022/01/25 11:35:26;;;;;;;59.97;23.55;;;5.30;99.90;;;;;;5011820;28;20030;-84
2022/01/25 11:37:52;;;;;;;60.75;25.65;;;5.30;99.90;;;;;;5003000;28;20036;-84
2022/01/25 11:40:23;;;;;;;61.10;24.92;;;5.30;99.90;;;;;;5013186;28;20117;-83
2022/01/25 11:42:52;;;;;;;65.22;23.63;;;5.30;99.90;;;;;;5018424;28;20569;-83
2022/01/25 11:45:24;;;;;;;63.58;24.00;;;5.30;99.90;;;;;;5017643;28;20042;-83
2022/01/25 11:47:52;;;;;;;57.50;23.58;;;5.30;99.90;;;;;;5015233;28;20084;-83
2022/01/25 11:50:18;;;;;;;60.03;23.02;;;5.30;99.90;;;;;;5010765;28;20120;-83
2022/01/25 11:52:48;;;;;;;60.75;22.70;;;5.30;99.90;;;;;;5016837;28;20408;-83
2022/01/25 11:55:30;;;;;;;60.17;22.08;;;5.30;99.90;;;;;;5011618;28;20037;-83
2022/01/25 11:57:59;;;;;;;63.90;24.40;;;5.30;99.90;;;;;;5016451;28;20033;-83
2022/01/25 12:00:39;;;;;;;63.05;24.33;;;5.30;99.90;;;;;;5022436;28;20038;-83
2022/01/25 12:03:27;;;;;;;55.80;22.90;;;5.30;99.90;;;;;;5011597;28;20049;-83
2022/01/25 12:06:21;;;;;;;63.20;23.88;;;5.30;99.90;;;;;;5018446;28;20052;-83
2022/01/25 12:09:17;;;;;;;60.42;24.20;;;5.40;99.90;;;;;;5015857;28;20033;-83
2022/01/25 12:11:58;;;;;;;62.13;23.63;;;5.30;99.90;;;;;;5012875;28;20038;-83
2022/01/25 12:14:33;;;;;;;60.17;23.13;;;5.40;99.90;;;;;;5019601;28;20060;-83
2022/01/25 12:17:02;;;;;;;57.65;23.00;;;5.40;99.90;;;;;;5018373;28;20079;-82
2022/01/25 12:19:48;;;;;;;60.47;24.15;;;5.40;99.90;;;;;;5017854;28;20041;-82
2022/01/25 12:22:18;;;;;;;67.53;24.58;;;5.30;99.90;;;;;;5014118;28;20402;-83
2022/01/25 12:24:46;;;;;;;64.47;24.60;;;5.30;99.90;;;;;;5010393;28;20034;-83
2022/01/25 12:27:27;;;;;;;58.72;22.17;;;5.30;97.70;;;;;;5010009;28;20754;-83
2022/01/25 12:29:58;;;;;;;;;;;5.30;99.90;;;;;;5013548;28;20030;-82
2022/01/25 12:32:33;;;;;;;66.43;23.67;;;5.30;99.90;;;;;;5012895;28;20365;-83
2022/01/25 12:35:10;;;;;;;64.22;24.05;;;5.40;99.90;;;;;;5015115;28;20357;-83
2022/01/25 12:37:45;;;;;;;66.38;23.83;;;5.30;99.90;;;;;;5013060;28;20037;-82
2022/01/25 12:40:26;;;;;;;64.93;23.05;;;5.40;99.90;;;;;;5011083;28;20565;-82
2022/01/25 12:43:02;;;;;;;67.43;24.73;;;5.40;99.90;;;;;;5011478;28;20026;-82
2022/01/25 12:45:40;;;;;;;62.17;21.02;;;5.40;99.90;;;;;;5013241;28;20352;-82
2022/01/25 12:48:08;;;;;;;61.35;25.00;;;5.30;99.90;;;;;;5010302;28;20030;-82
2022/01/25 12:50:40;;;;;;;63.33;24.05;;;5.40;99.90;;;;;;5007904;28;20030;-82
2022/01/25 12:53:08;;;;;;;64.38;25.73;;;5.30;99.90;;;;;;5008299;28;20065;-82
2022/01/25 12:55:39;;;;;;;60.90;24.05;;;5.30;99.90;;;;;;5013284;28;20045;-83
2022/01/25 12:58:05;;;;;;;62.25;22.90;;;5.30;87.60;;;;;;5012452;28;20029;-82
2022/01/25 13:00:35;;;;;;;58.88;23.15;;;5.30;99.90;;;;;;5013333;28;20061;-82
2022/01/25 13:03:29;;;;;;;58.85;23.00;;;5.30;99.60;;;;;;5013444;28;20097;-82
2022/01/25 13:06:15;;;;;;;58.50;23.20;;;5.30;99.90;;;;;;5012691;28;20074;-82
2022/01/25 13:08:51;;;;;;;59.42;24.25;;;5.30;98.70;;;;;;5007814;28;20034;-82
2022/01/25 13:11:22;;;;;;;61.22;22.63;;;5.20;99.90;;;;;;5014279;28;20050;-82
2022/01/25 13:14:03;;;;;;;61.83;23.45;;;5.20;99.90;;;;;;5016727;28;20022;-82
2022/01/25 13:16:41;;;;;;;57.97;23.83;;;5.20;99.90;;;;;;5013748;28;20034;-82
2022/01/25 13:19:07;;;;;;;60.80;24.58;;;5.30;99.90;;;;;;5014044;28;20105;-82
2022/01/25 13:22:00;;;;;;;66.25;25.42;;;5.30;99.90;;;;;;5013312;28;20057;-82
2022/01/25 13:24:32;;;;;;;62.63;23.42;;;5.20;99.90;;;;;;5006306;28;20088;-81
2022/01/25 13:27:09;;;;;;;58.97;22.42;;;5.30;99.90;;;;;;5017037;28;20381;-82
2022/01/25 13:32:35;;;;;;;66.40;25.63;;;5.20;99.90;;;;;;5010531;28;20068;-82
2022/01/25 13:35:15;;;;;;;63.13;24.38;;;5.20;99.90;;;;;;5019059;28;20384;-82
2022/01/25 13:37:41;;;;;;;62.28;24.02;;;5.30;99.90;;;;;;5018959;28;20018;-82
2022/01/25 13:40:09;;;;;;;64.97;25.25;;;5.20;99.90;;;;;;5019041;28;20026;-82
2022/01/25 13:42:43;;;;;;;62.72;24.73;;;5.20;99.90;;;;;;5020243;28;20103;-82
2022/01/25 13:47:59;;;;;;;66.43;25.10;;;5.20;99.90;;;;;;5018494;28;20492;-82
2022/01/25 13:50:26;;;;;;;63.95;24.67;;;5.20;99.90;;;;;;5017327;28;20022;-81
2022/01/25 13:52:52;;;;;;;59.72;23.17;;;5.20;99.90;;;;;;5017993;28;20032;-81
2022/01/25 13:55:18;;;;;;;61.45;23.83;;;5.20;99.90;;;;;;5017717;28;20401;-82
2022/01/25 13:57:43;;;;;;;60.58;23.98;;;5.20;99.90;;;;;;5021641;28;20022;-82
2022/01/25 14:00:11;;;;;;;61.65;21.85;;;5.20;99.90;;;;;;5020162;28;20061;-82
2022/01/25 14:02:37;;;;;;;61.17;22.33;;;5.20;99.90;;;;;;5020457;28;20029;-82
2022/01/25 14:05:03;;;;;;;61.45;24.00;;;5.10;99.90;;;;;;5018307;28;20026;-82
2022/01/25 14:07:35;;;;;;;66.45;24.00;;;5.10;99.90;;;;;;5018456;28;20061;-81
2022/01/25 14:10:10;;;;;;;65.47;24.65;;;5.10;99.90;;;;;;5017497;28;20382;-82
2022/01/25 14:23:47;;;;;;;60.55;22.55;;;5.00;99.90;;;;;;5016520;28;20084;-83
2022/01/25 14:26:15;;;;;;;67.43;24.20;;;5.00;99.90;;;;;;5022801;28;20030;-83
2022/01/25 14:28:45;;;;;;;69.82;25.65;;;5.00;99.90;;;;;;5014224;28;20026;-83
2022/01/25 14:31:25;;;;;;;61.53;23.20;;;5.00;99.90;;;;;;5004662;28;20113;-83
2022/01/25 14:33:57;;;;;;;64.90;24.80;;;4.90;99.90;;;;;;5002002;28;20493;-83
2022/01/25 14:36:24;;;;;;;68.18;24.55;;;5.00;99.90;;;;;;5002756;28;20035;-83
2022/01/25 14:38:52;;;;;;;64.15;24.77;;;4.90;99.90;;;;;;5004133;28;20029;-83
2022/01/25 14:41:28;;;;;;;66.43;23.25;;;4.90;99.90;;;;;;5009290;28;20027;-82